Terminal Aerodrome Forecast
Issued by NWS

Home | Current Version | Previous Version | Text Only | Print | Product List | Glossary On
Versions: 1 2 3 4 5 6 7 8 9 10 11 12
000
FTUS46 KSTO 051120
TAFMHR
TAF
KMHR 051120Z 0512/0612 16010KT P6SM OVC100
     FM051900 18006KT P6SM VCSH BKN050
     FM060600 20010KT P6SM -SHRA OVC050=

USA.gov is the U.S. government's official web portal to all federal, state and local government web resources and services.